Time;durP1;ratioP1;P1;durP2;ratioP2;P2;SDS_P1;SDS_P2;PMS_P1;PMS_P2;Temp;Humidity;BMP_temperature;BMP_pressure;BME280_temperature;BME280_humidity;BME280_pressure;Samples;Min_cycle;Max_cycle;Signal;HPM_P1;HPM_P2
2021/03/09 00:01:03;;;;;;;;;13.70;7.90;;;;;-4.24;73.37;99888.59;475669;114;376442;-52
2021/03/09 00:02:08;;;;;;;;;11.10;6.60;;;;;-4.29;73.50;99894.70;475308;114;375879;-51
2021/03/09 00:03:12;;;;;;;;;8.90;7.00;;;;;-4.21;73.33;99881.66;472591;114;376407;-52
2021/03/09 00:04:17;;;;;;;;;10.50;5.80;;;;;-4.22;73.39;99897.07;472408;114;376413;-51
2021/03/09 00:05:21;;;;;;;;;8.30;7.80;;;;;-4.13;73.13;99895.09;474262;114;381754;-51
2021/03/09 00:06:27;;;;;;;;;5.60;4.50;;;;;-4.13;73.13;99895.09;473364;114;374550;-51
2021/03/09 00:07:31;;;;;;;;;9.20;8.80;;;;;-4.15;73.25;99894.30;475918;114;380627;-51
2021/03/09 00:08:36;;;;;;;;;7.70;6.50;;;;;-4.10;73.11;99894.16;475612;114;375680;-52
2021/03/09 00:09:40;;;;;;;;;10.90;5.90;;;;;-4.10;73.11;99894.16;488767;110;375460;-51
2021/03/09 00:10:46;;;;;;;;;7.30;6.70;;;;;-4.01;72.81;99891.31;490397;110;382202;-52
2021/03/09 00:11:50;;;;;;;;;6.00;5.60;;;;;-4.01;72.81;99891.31;492471;109;374954;-51
2021/03/09 00:12:54;;;;;;;;;4.60;3.30;;;;;-4.04;72.92;99894.81;491451;109;374143;-52
2021/03/09 00:13:59;;;;;;;;;7.90;5.30;;;;;-4.05;72.84;99892.30;491822;109;375964;-57
2021/03/09 00:15:03;;;;;;;;;8.20;6.30;;;;;-4.05;72.84;99892.30;490026;110;375080;-57
2021/03/09 00:16:09;;;;;;;;;7.00;6.80;;;;;-4.02;73.06;99889.64;493006;109;374088;-59
2021/03/09 00:17:13;;;;;;;;;6.50;5.70;;;;;-3.99;72.82;99887.85;494036;109;374573;-59
2021/03/09 00:18:18;;;;;;;;;5.00;5.00;;;;;-3.95;72.79;99893.72;489488;110;373887;-58
2021/03/09 00:19:22;;;;;;;;;3.10;1.30;;;;;-3.91;72.42;99892.73;489040;110;374483;-58
2021/03/09 00:20:27;;;;;;;;;12.00;6.50;;;;;-3.91;72.42;99892.73;490601;109;376398;-57
2021/03/09 00:21:31;;;;;;;;;4.70;4.50;;;;;-3.91;72.41;99886.77;490871;109;380373;-57
2021/03/09 00:22:36;;;;;;;;;12.00;8.20;;;;;-3.94;72.46;99882.59;491425;110;376678;-58
2021/03/09 00:23:40;;;;;;;;;7.00;6.60;;;;;-3.94;72.46;99882.59;491672;109;386396;-59
2021/03/09 00:24:44;;;;;;;;;8.60;5.20;;;;;-3.97;72.85;99885.25;493167;110;374152;-59
2021/03/09 00:25:48;;;;;;;;;5.10;4.40;;;;;-3.91;72.64;99884.21;489303;110;374664;-58
2021/03/09 00:26:53;;;;;;;;;9.50;7.40;;;;;-3.90;72.64;99881.60;491638;109;376056;-57
2021/03/09 00:27:59;;;;;;;;;6.80;5.80;;;;;-3.84;72.37;99878.00;490690;109;383419;-58
2021/03/09 00:29:03;;;;;;;;;8.40;5.20;;;;;-3.84;72.35;99876.28;494629;109;375005;-59
2021/03/09 00:30:10;;;;;;;;;9.20;7.70;;;;;-3.84;72.35;99876.28;492635;109;375396;-58
2021/03/09 00:31:15;;;;;;;;;9.10;6.50;;;;;-3.85;72.36;99879.73;490760;109;383997;-58
2021/03/09 00:32:19;;;;;;;;;7.10;4.90;;;;;-3.86;72.52;99883.17;490469;110;373778;-58
2021/03/09 00:33:23;;;;;;;;;10.20;6.50;;;;;-3.87;72.30;99878.11;488250;110;383737;-59
2021/03/09 00:34:27;;;;;;;;;9.20;5.90;;;;;-3.85;72.37;99882.29;492040;109;374704;-56
2021/03/09 00:35:32;;;;;;;;;5.40;4.00;;;;;-3.80;72.15;99877.05;487656;110;373832;-57
2021/03/09 00:36:38;;;;;;;;;10.30;6.60;;;;;-3.80;72.15;99877.05;490106;109;375461;-60
2021/03/09 00:37:42;;;;;;;;;6.70;5.80;;;;;-3.79;72.26;99879.56;489716;110;374594;-57
2021/03/09 00:38:47;;;;;;;;;5.20;5.20;;;;;-3.83;72.17;99880.52;489679;111;373099;-59
2021/03/09 00:39:51;;;;;;;;;7.40;4.00;;;;;-3.83;72.17;99880.52;490733;110;375092;-57
2021/03/09 00:40:55;;;;;;;;;7.30;5.80;;;;;-3.80;72.26;99877.05;492901;109;374611;-58
2021/03/09 00:42:00;;;;;;;;;6.90;5.50;;;;;-3.77;72.18;99884.64;491814;109;374828;-58
2021/03/09 00:43:04;;;;;;;;;5.40;5.40;;;;;-3.78;72.54;99883.80;494122;109;374219;-57
2021/03/09 00:44:08;;;;;;;;;5.40;3.50;;;;;-3.78;72.54;99883.80;491252;109;380448;-57
2021/03/09 00:45:14;;;;;;;;;7.50;6.40;;;;;-3.75;72.20;99885.42;491408;109;373818;-58
2021/03/09 00:46:21;;;;;;;;;8.30;6.10;;;;;-3.82;72.63;99891.60;490500;109;382408;-58
2021/03/09 00:47:26;;;;;;;;;7.60;5.40;;;;;-3.77;72.36;99890.59;489783;109;373719;-57
2021/03/09 00:48:37;;;;;;;;;6.60;5.40;;;;;-3.75;72.30;99886.27;490294;109;374953;-57
2021/03/09 00:49:41;;;;;;;;;7.60;4.40;;;;;-3.71;72.09;99892.13;491235;109;376911;-58
2021/03/09 00:50:47;;;;;;;;;4.00;3.10;;;;;-3.70;71.92;99886.95;487491;109;375143;-58
2021/03/09 00:51:52;;;;;;;;;6.40;5.40;;;;;-3.70;71.92;99886.95;490124;109;375379;-53
2021/03/09 00:52:56;;;;;;;;;8.40;6.20;;;;;-3.69;72.01;99892.91;495499;109;374991;-54
2021/03/09 00:54:01;;;;;;;;;7.40;4.80;;;;;-3.68;72.00;99892.03;495503;109;374130;-54
2021/03/09 00:55:08;;;;;;;;;5.70;4.80;;;;;-3.68;72.00;99892.03;496148;109;375338;-53
2021/03/09 00:56:12;;;;;;;;;6.10;3.90;;;;;-3.71;71.79;99892.13;490559;109;374865;-55
2021/03/09 00:57:16;;;;;;;;;7.40;3.40;;;;;-3.72;71.92;99888.73;488314;110;374251;-57
2021/03/09 00:58:20;;;;;;;;;5.45;4.27;;;;;-3.72;71.92;99888.73;490461;111;379299;-53
2021/03/09 00:59:25;;;;;;;;;7.50;5.20;;;;;-3.65;72.00;99891.92;489687;109;376171;-55
2021/03/09 01:00:30;;;;;;;;;9.70;6.30;;;;;-3.60;71.86;99894.34;487808;110;376312;-55
2021/03/09 01:01:34;;;;;;;;;5.80;4.50;;;;;-3.60;71.86;99894.34;488972;110;375040;-55
2021/03/09 01:02:39;;;;;;;;;5.10;3.90;;;;;-3.58;71.68;99893.44;491541;109;373864;-56
2021/03/09 01:03:43;;;;;;;;;7.40;3.40;;;;;-3.59;71.77;99889.20;489905;110;380731;-54
2021/03/09 01:04:49;;;;;;;;;4.20;4.20;;;;;-3.59;71.77;99889.20;488111;110;379584;-54
2021/03/09 01:05:53;;;;;;;;;6.20;4.60;;;;;-3.59;71.83;99891.76;489264;110;385569;-53
2021/03/09 01:06:57;;;;;;;;;5.20;3.70;;;;;-3.56;71.67;99886.53;489752;110;374009;-54
2021/03/09 01:08:02;;;;;;;;;5.10;3.80;;;;;-3.53;71.63;99888.16;490026;110;372921;-57
2021/03/09 01:09:06;;;;;;;;;4.40;4.00;;;;;-3.49;71.56;99889.72;490322;110;373352;-55
2021/03/09 01:10:12;;;;;;;;;5.60;3.40;;;;;-3.50;71.64;99891.45;495771;108;380174;-56
2021/03/09 01:11:16;;;;;;;;;6.70;3.50;;;;;-3.50;71.64;99891.45;492787;108;373200;-53
2021/03/09 01:12:21;;;;;;;;;4.10;3.10;;;;;-3.49;71.67;99890.56;494909;108;378976;-55
2021/03/09 01:13:25;;;;;;;;;4.00;3.60;;;;;-3.49;71.67;99890.56;497080;108;375041;-56
2021/03/09 01:15:29;;;;;;;;;5.20;4.40;;;;;-3.55;71.67;99895.89;507577;106;412879;-58
2021/03/09 01:16:37;;;;;;;;;3.80;3.20;;;;;-3.55;71.67;99895.89;491081;110;374931;-54
2021/03/09 01:17:42;;;;;;;;;5.80;5.00;;;;;-3.50;71.74;99893.18;481258;112;375129;-54
2021/03/09 01:18:46;;;;;;;;;4.40;4.00;;;;;-3.52;71.80;99895.80;477330;114;374660;-56
2021/03/09 01:19:50;;;;;;;;;5.50;5.50;;;;;-3.48;71.69;99894.80;488347;110;373623;-54
2021/03/09 01:20:54;;;;;;;;;4.90;3.70;;;;;-3.49;72.12;99897.42;480488;112;381228;-51
2021/03/09 01:21:58;;;;;;;;;5.00;3.70;;;;;-3.49;72.12;99897.42;478344;112;373463;-56
2021/03/09 01:23:03;;;;;;;;;5.00;3.10;;;;;-3.45;71.70;99892.14;472076;114;373378;-55
2021/03/09 01:24:09;;;;;;;;;7.30;4.50;;;;;-3.42;71.56;99893.76;465436;116;376563;-54
2021/03/09 01:25:13;;;;;;;;;6.00;3.50;;;;;-3.40;71.45;99890.28;465342;116;375484;-54
2021/03/09 01:26:19;;;;;;;;;4.90;3.60;;;;;-3.45;71.59;99898.98;449058;121;373157;-54
2021/03/09 01:27:23;;;;;;;;;5.70;3.60;;;;;-3.40;71.73;99900.54;452279;120;373823;-54
2021/03/09 01:28:27;;;;;;;;;4.40;3.00;;;;;-3.40;71.73;99900.54;458102;118;373792;-55
2021/03/09 01:29:31;;;;;;;;;3.80;3.30;;;;;-3.36;71.59;99898.71;455446;119;379198;-56
2021/03/09 01:30:36;;;;;;;;;3.50;3.20;;;;;-3.36;71.59;99898.71;455705;118;374941;-54
2021/03/09 01:31:40;;;;;;;;;3.60;2.80;;;;;-3.38;71.60;99903.89;453529;119;374240;-57
2021/03/09 01:32:45;;;;;;;;;3.70;3.30;;;;;-3.30;71.41;99902.80;458074;119;374263;-56
2021/03/09 01:33:49;;;;;;;;;0.80;0.30;;;;;-3.30;71.41;99902.80;457039;119;373040;-55
2021/03/09 01:34:53;;;;;;;;;3.80;2.70;;;;;-3.35;71.35;99904.67;457299;119;373971;-54
2021/03/09 01:35:58;;;;;;;;;4.50;3.00;;;;;-3.35;71.35;99904.67;461574;117;374270;-57
2021/03/09 01:37:03;;;;;;;;;1.80;1.80;;;;;-3.40;71.53;99895.41;465522;117;379898;-56
2021/03/09 01:38:07;;;;;;;;;4.60;3.00;;;;;-3.31;71.26;99891.70;464391;117;377311;-55
2021/03/09 01:39:12;;;;;;;;;3.50;3.30;;;;;-3.31;71.29;99893.42;464433;117;375060;-59
2021/03/09 01:40:19;;;;;;;;;3.50;3.00;;;;;-3.28;71.14;99906.14;455474;117;374204;-54
2021/03/09 01:41:23;;;;;;;;;2.70;1.20;;;;;-3.26;71.16;99899.23;463863;117;373926;-57
2021/03/09 01:42:28;;;;;;;;;4.60;4.00;;;;;-3.24;70.88;99911.12;463228;117;374806;-51
2021/03/09 01:43:32;;;;;;;;;5.00;3.80;;;;;-3.24;70.88;99911.12;462901;117;378081;-55
2021/03/09 01:44:37;;;;;;;;;3.50;3.00;;;;;-3.26;70.96;99909.50;464454;117;374272;-57
2021/03/09 01:45:41;;;;;;;;;7.20;3.60;;;;;-3.29;70.89;99907.03;464513;117;373429;-56
2021/03/09 01:46:47;;;;;;;;;3.00;2.40;;;;;-3.29;70.89;99907.03;459019;117;379795;-53
2021/03/09 01:47:52;;;;;;;;;4.80;3.00;;;;;-3.28;71.08;99906.14;463793;117;374423;-55
2021/03/09 01:48:56;;;;;;;;;3.60;3.60;;;;;-3.32;71.12;99915.67;464113;117;373560;-56
2021/03/09 01:50:01;;;;;;;;;5.00;4.00;;;;;-3.27;71.15;99907.81;463664;117;373284;-56
2021/03/09 01:51:05;;;;;;;;;6.30;4.00;;;;;-3.23;71.08;99906.83;463260;117;374929;-56
2021/03/09 01:52:10;;;;;;;;;5.10;3.10;;;;;-3.23;71.08;99906.83;470852;114;374163;-56
2021/03/09 01:53:14;;;;;;;;;1.20;1.20;;;;;-3.25;70.92;99904.31;493396;110;381387;-56
2021/03/09 01:54:19;;;;;;;;;5.20;2.30;;;;;-3.25;71.08;99911.17;486899;110;373830;-55
2021/03/09 01:55:23;;;;;;;;;2.20;2.20;;;;;-3.22;71.02;99913.62;486354;110;372469;-58
2021/03/09 01:56:27;;;;;;;;;3.90;2.80;;;;;-3.21;70.97;99905.05;490423;110;373795;-56
2021/03/09 01:57:32;;;;;;;;;3.40;3.40;;;;;-3.30;71.22;99915.61;487290;111;373105;-56
2021/03/09 01:58:36;;;;;;;;;3.90;3.60;;;;;-3.25;70.95;99911.17;487277;111;380071;-54
2021/03/09 01:59:41;;;;;;;;;2.80;2.80;;;;;-3.25;70.95;99911.17;491356;110;374760;-55
2021/03/09 02:00:47;;;;;;;;;4.30;2.60;;;;;-3.21;70.64;99911.02;485580;110;374285;-56
2021/03/09 02:01:51;;;;;;;;;2.00;2.00;;;;;-3.21;70.64;99911.02;487770;110;373720;-54
2021/03/09 02:02:55;;;;;;;;;3.70;3.10;;;;;-3.18;70.80;99912.66;489827;110;379301;-55
2021/03/09 02:03:59;;;;;;;;;3.10;3.10;;;;;-3.23;70.92;99917.92;483943;111;373120;-53
2021/03/09 02:05:06;;;;;;;;;3.40;3.40;;;;;-3.21;70.87;99911.02;487019;110;373212;-55
2021/03/09 02:06:12;;;;;;;;;2.00;2.00;;;;;-3.21;70.87;99911.02;487752;110;379822;-55
2021/03/09 02:07:16;;;;;;;;;3.80;3.00;;;;;-3.29;71.24;99919.86;487120;110;373868;-52
2021/03/09 02:08:20;;;;;;;;;2.00;2.00;;;;;-3.32;71.57;99915.67;489644;110;380572;-55
2021/03/09 02:09:25;;;;;;;;;6.80;3.30;;;;;-3.26;71.57;99922.31;489796;110;374141;-56
2021/03/09 02:10:29;;;;;;;;;4.00;3.20;;;;;-3.24;71.28;99921.38;489316;110;374577;-55
2021/03/09 02:11:40;;;;;;;;;3.40;3.40;;;;;-3.25;71.63;99919.70;487602;110;374972;-55
2021/03/09 02:12:53;;;;;;;;;2.50;1.30;;;;;-3.20;71.32;99917.01;491231;110;378684;-56
2021/03/09 02:14:02;;;;;;;;;4.30;3.30;;;;;-3.20;71.32;99917.01;485138;110;373944;-54
2021/03/09 02:15:10;;;;;;;;;2.00;2.00;;;;;-3.15;71.22;99918.53;491564;110;380851;-55
2021/03/09 02:16:19;;;;;;;;;3.70;2.60;;;;;-3.15;71.22;99918.53;488535;110;373453;-52
2021/03/09 02:17:29;;;;;;;;;2.00;2.00;;;;;-3.15;71.20;99926.22;474136;114;373977;-55
2021/03/09 02:18:38;;;;;;;;;3.70;2.80;;;;;-3.20;71.49;99928.11;476286;113;374646;-53
2021/03/09 02:20:17;;;;;;;;;3.40;3.40;;;;;-3.20;71.49;99928.11;473875;113;381492;-56
2021/03/09 02:21:41;;;;;;;;;4.00;3.30;;;;;-3.19;71.35;99934.91;472961;114;373517;-54
2021/03/09 02:23:07;;;;;;;;;2.40;1.80;;;;;-3.22;71.90;99927.29;468557;114;372000;-54
2021/03/09 02:24:39;;;;;;;;;3.90;2.90;;;;;-3.31;72.14;99929.33;476217;113;373976;-54
2021/03/09 02:25:55;;;;;;;;;4.00;2.20;;;;;-3.31;72.20;99932.73;462176;116;373823;-55
2021/03/09 02:27:40;;;;;;;;;4.10;1.20;;;;;-3.38;72.49;99936.38;476062;113;373910;-55
2021/03/09 02:28:48;;;;;;;;;3.70;3.70;;;;;-3.43;72.71;99933.94;475749;114;382456;-55
2021/03/09 02:30:10;;;;;;;;;4.60;3.00;;;;;-3.42;73.41;99938.18;475215;114;374735;-54
2021/03/09 02:31:14;;;;;;;;;4.70;3.40;;;;;-3.40;73.12;99936.44;475952;113;382754;-56
2021/03/09 02:32:21;;;;;;;;;3.10;2.60;;;;;-3.40;73.12;99936.44;475539;114;372692;-56
2021/03/09 02:33:29;;;;;;;;;4.70;3.50;;;;;-3.38;73.07;99933.82;475155;114;373815;-53
2021/03/09 02:34:36;;;;;;;;;4.10;4.10;;;;;-3.34;72.77;99934.55;475551;114;378174;-53
2021/03/09 02:35:42;;;;;;;;;3.80;2.50;;;;;-3.43;73.67;99936.50;475119;114;373452;-51
2021/03/09 02:36:48;;;;;;;;;6.00;4.80;;;;;-3.47;74.05;99940.05;485467;110;375066;-55
2021/03/09 02:37:52;;;;;;;;;5.50;3.20;;;;;-3.40;73.55;99943.29;486566;111;374934;-54
2021/03/09 02:38:58;;;;;;;;;4.90;3.80;;;;;-3.40;73.37;99944.12;489221;110;374625;-55
2021/03/09 02:40:04;;;;;;;;;3.40;3.40;;;;;-3.34;73.12;99944.81;488918;110;373433;-54
2021/03/09 02:41:10;;;;;;;;;5.60;5.60;;;;;-3.30;73.05;99939.53;490497;110;373869;-57
2021/03/09 02:42:17;;;;;;;;;1.00;1.00;;;;;-3.31;73.32;99940.42;489493;110;380510;-55
2021/03/09 02:43:21;;;;;;;;;6.90;4.80;;;;;-3.28;73.27;99942.88;486970;110;375528;-53
2021/03/09 02:44:25;;;;;;;;;5.00;4.00;;;;;-3.28;73.60;99936.91;487487;110;374314;-55
2021/03/09 02:45:30;;;;;;;;;6.10;3.20;;;;;-3.27;73.95;99941.99;490022;110;381938;-54
2021/03/09 02:46:36;;;;;;;;;4.30;3.00;;;;;-3.27;73.95;99941.99;489939;110;376700;-58
2021/03/09 02:47:44;;;;;;;;;5.40;3.40;;;;;-3.26;73.65;99942.83;488399;110;377809;-55
2021/03/09 02:48:48;;;;;;;;;3.70;1.00;;;;;-3.25;74.02;99945.34;484116;111;380260;-57
2021/03/09 02:49:53;;;;;;;;;4.40;3.40;;;;;-3.25;74.02;99945.34;489560;110;372845;-54
2021/03/09 02:50:59;;;;;;;;;3.60;3.60;;;;;-3.23;73.93;99947.86;487416;110;373544;-55
2021/03/09 02:52:04;;;;;;;;;3.00;2.80;;;;;-3.34;74.54;99943.09;488567;110;375836;-54
2021/03/09 02:53:10;;;;;;;;;5.40;3.00;;;;;-3.34;74.54;99943.09;486655;111;375204;-52
2021/03/09 02:54:15;;;;;;;;;6.90;4.70;;;;;-3.38;75.07;99944.91;487988;110;377894;-53
2021/03/09 02:55:20;;;;;;;;;5.70;4.30;;;;;-3.26;74.10;99950.52;484258;111;374644;-53
2021/03/09 02:56:24;;;;;;;;;4.00;3.50;;;;;-3.26;74.10;99950.52;489568;110;382826;-53
2021/03/09 02:57:28;;;;;;;;;3.50;3.00;;;;;-3.37;75.23;99945.75;489766;110;379549;-55
2021/03/09 02:58:34;;;;;;;;;3.00;3.00;;;;;-3.42;75.47;99948.44;485174;111;374049;-54
2021/03/09 02:59:38;;;;;;;;;4.60;2.40;;;;;-3.32;74.96;99954.13;486430;111;374116;-52
2021/03/09 03:00:43;;;;;;;;;3.00;3.00;;;;;-3.24;74.79;99957.28;486569;110;379624;-56
2021/03/09 03:01:49;;;;;;;;;3.40;3.40;;;;;-3.24;74.79;99957.28;490825;110;372838;-57
2021/03/09 03:02:55;;;;;;;;;3.40;3.40;;;;;-3.23;74.58;99956.39;488320;110;374076;-52
2021/03/09 03:03:59;;;;;;;;;3.40;3.40;;;;;-3.32;75.20;99958.42;489333;110;374914;-54
2021/03/09 03:05:05;;;;;;;;;1.60;1.20;;;;;-3.32;75.20;99958.42;485808;110;372318;-53
2021/03/09 03:06:10;;;;;;;;;5.10;4.40;;;;;-3.32;75.19;99959.26;488415;110;374482;-56
2021/03/09 03:07:15;;;;;;;;;3.60;2.80;;;;;-3.32;75.19;99959.26;488672;110;380586;-55
2021/03/09 03:08:19;;;;;;;;;4.00;4.00;;;;;-3.28;75.52;99965.13;489559;110;374124;-56
2021/03/09 03:09:23;;;;;;;;;3.90;2.60;;;;;-3.26;75.07;99961.62;489644;110;373437;-53
2021/03/09 03:10:27;;;;;;;;;2.90;2.40;;;;;-3.28;75.33;99962.56;486639;111;373461;-57
2021/03/09 03:11:33;;;;;;;;;5.30;4.80;;;;;-3.28;75.33;99962.56;487921;110;374221;-55
2021/03/09 03:12:37;;;;;;;;;4.50;3.70;;;;;-3.24;75.04;99967.53;488713;110;373954;-54
2021/03/09 03:13:41;;;;;;;;;4.50;3.90;;;;;-3.21;74.85;99962.30;488941;110;381525;-55
2021/03/09 03:14:46;;;;;;;;;3.50;3.50;;;;;-3.19;74.80;99965.69;487051;110;373258;-53
2021/03/09 03:15:50;;;;;;;;;3.60;3.20;;;;;-3.19;74.80;99965.69;488063;110;373902;-54
2021/03/09 03:16:55;;;;;;;;;5.80;4.00;;;;;-3.22;74.96;99968.32;483226;111;373491;-51
2021/03/09 03:17:59;;;;;;;;;3.10;3.10;;;;;-3.22;74.96;99968.32;486423;111;382153;-54
2021/03/09 03:19:05;;;;;;;;;3.00;3.00;;;;;-3.22;74.52;99968.32;486188;112;375262;-53
2021/03/09 03:20:13;;;;;;;;;4.20;3.90;;;;;-3.30;74.66;99967.73;484482;112;380775;-56
2021/03/09 03:21:18;;;;;;;;;4.50;3.00;;;;;-3.31;74.72;99972.91;479202;112;373623;-55
2021/03/09 03:22:22;;;;;;;;;4.90;3.30;;;;;-3.35;74.82;99971.34;479718;112;374033;-55
2021/03/09 03:23:26;;;;;;;;;3.70;3.40;;;;;-3.32;74.71;99972.08;481699;112;377001;-56
2021/03/09 03:24:30;;;;;;;;;2.80;2.00;;;;;-3.32;74.51;99979.77;485886;112;374077;-55
2021/03/09 03:25:34;;;;;;;;;2.70;2.70;;;;;-3.32;74.86;99977.20;484439;112;374135;-53
2021/03/09 03:26:42;;;;;;;;;6.00;3.20;;;;;-3.33;75.03;99987.52;485320;112;379302;-54
2021/03/09 03:27:47;;;;;;;;;4.40;3.90;;;;;-3.32;75.08;99982.33;480565;112;373781;-55
2021/03/09 03:28:52;;;;;;;;;1.80;0.20;;;;;-3.29;74.79;99986.53;481260;112;369818;-54
2021/03/09 03:29:56;;;;;;;;;2.40;2.40;;;;;-3.31;75.60;99975.48;483040;112;379754;-54
2021/03/09 03:31:01;;;;;;;;;5.50;2.60;;;;;-3.37;75.47;99976.52;485048;112;373844;-53
2021/03/09 03:32:07;;;;;;;;;4.10;3.10;;;;;-3.34;75.71;99983.27;485781;112;380688;-53
2021/03/09 03:33:11;;;;;;;;;1.40;0.00;;;;;-3.49;77.34;99989.70;484969;112;373937;-54
2021/03/09 03:34:16;;;;;;;;;3.00;2.40;;;;;-3.49;77.34;99989.70;482235;112;372918;-54
2021/03/09 03:35:20;;;;;;;;;4.00;3.30;;;;;-3.54;77.93;99994.97;480488;111;374164;-54
2021/03/09 03:36:26;;;;;;;;;3.20;2.40;;;;;-3.54;77.93;99994.97;477159;113;373749;-55
2021/03/09 03:37:30;;;;;;;;;2.80;2.40;;;;;-3.51;77.54;99994.88;477542;113;374242;-52
2021/03/09 03:38:35;;;;;;;;;6.70;4.60;;;;;-3.51;78.17;99992.31;477972;113;375011;-54
2021/03/09 03:39:39;;;;;;;;;4.60;3.30;;;;;-3.52;78.66;99989.80;477311;113;374922;-54
2021/03/09 03:40:46;;;;;;;;;6.10;2.60;;;;;-3.56;79.32;99993.34;474832;114;372754;-55
2021/03/09 03:41:51;;;;;;;;;4.20;3.20;;;;;-3.50;79.17;99991.42;476462;113;374138;-54
2021/03/09 03:42:56;;;;;;;;;3.80;3.70;;;;;-3.48;77.94;99992.22;469235;114;374939;-54
2021/03/09 03:44:00;;;;;;;;;3.70;3.20;;;;;-3.55;80.38;99993.30;476244;114;372446;-52
2021/03/09 03:45:07;;;;;;;;;5.00;3.20;;;;;-3.55;80.38;99993.30;476466;114;379931;-55
2021/03/09 03:46:13;;;;;;;;;3.00;3.00;;;;;-3.56;81.08;99999.30;472038;115;373814;-58
2021/03/09 03:47:18;;;;;;;;;2.20;2.20;;;;;-3.62;80.92;99994.34;473614;114;373896;-53
2021/03/09 03:48:22;;;;;;;;;5.00;3.20;;;;;-3.62;80.92;99994.34;477182;114;373452;-54
2021/03/09 03:49:27;;;;;;;;;3.80;3.80;;;;;-3.54;80.90;100005.22;476872;114;373646;-55
2021/03/09 03:50:33;;;;;;;;;5.40;4.50;;;;;-3.54;80.90;100005.22;464141;116;375436;-56
2021/03/09 03:51:42;;;;;;;;;5.30;3.80;;;;;-3.55;81.29;100003.55;461226;118;373482;-54
2021/03/09 03:53:02;;;;;;;;;6.00;3.20;;;;;-3.61;81.62;100006.27;458749;116;375237;-52
2021/03/09 03:54:13;;;;;;;;;5.00;4.80;;;;;-3.58;81.40;100015.62;461719;118;373856;-55
2021/03/09 03:55:22;;;;;;;;;2.60;2.00;;;;;-3.58;81.40;100015.62;461035;116;372839;-55
2021/03/09 03:56:33;;;;;;;;;4.80;4.00;;;;;-3.63;82.63;100014.89;469007;114;374689;-55
2021/03/09 03:57:41;;;;;;;;;4.30;4.00;;;;;-3.58;82.03;100008.77;467240;116;381362;-54
2021/03/09 03:58:47;;;;;;;;;8.30;4.40;;;;;-3.54;80.68;100006.95;465407;116;375783;-59
2021/03/09 03:59:53;;;;;;;;;5.10;3.00;;;;;-3.64;83.67;100013.22;469427;116;374063;-54
2021/03/09 04:00:57;;;;;;;;;5.70;3.20;;;;;-3.64;83.67;100013.22;469340;116;375123;-56
2021/03/09 04:02:03;;;;;;;;;4.30;3.90;;;;;-3.71;84.89;100008.28;469772;116;380249;-54
2021/03/09 04:03:08;;;;;;;;;4.20;3.40;;;;;-3.71;84.89;100008.28;472935;114;373298;-54
2021/03/09 04:04:13;;;;;;;;;4.50;4.00;;;;;-3.71;83.94;100005.72;472898;114;381968;-59
2021/03/09 04:05:18;;;;;;;;;4.70;2.60;;;;;-3.71;83.94;100005.72;465808;116;374455;-56
2021/03/09 04:06:23;;;;;;;;;2.00;2.00;;;;;-3.74;83.97;100010.09;471662;114;372847;-55
2021/03/09 04:07:28;;;;;;;;;4.00;3.70;;;;;-3.76;82.20;100015.27;471265;114;374170;-57
2021/03/09 04:08:33;;;;;;;;;3.50;3.00;;;;;-3.76;82.20;100015.27;471272;114;381075;-55
2021/03/09 04:09:37;;;;;;;;;5.10;3.40;;;;;-3.73;81.68;100015.17;479081;112;373609;-53
2021/03/09 04:10:43;;;;;;;;;4.80;3.20;;;;;-3.78;81.58;100018.77;478308;113;381035;-55
2021/03/09 04:11:47;;;;;;;;;2.50;0.90;;;;;-3.76;81.43;100009.30;480462;112;372747;-54
2021/03/09 04:12:51;;;;;;;;;5.10;4.20;;;;;-3.72;80.69;100019.41;475679;112;375275;-54
2021/03/09 04:13:56;;;;;;;;;3.90;2.70;;;;;-3.67;80.48;100027.80;485189;112;373821;-56
2021/03/09 04:15:00;;;;;;;;;4.90;2.50;;;;;-3.70;79.29;100027.05;485603;112;373703;-56
2021/03/09 04:16:06;;;;;;;;;4.40;3.50;;;;;-3.73;79.40;100032.27;485144;112;379145;-56
2021/03/09 04:17:10;;;;;;;;;4.80;2.80;;;;;-3.73;79.40;100032.27;481619;112;383108;-56
2021/03/09 04:18:15;;;;;;;;;3.20;1.80;;;;;-3.72;79.06;100031.39;481624;112;373003;-55
2021/03/09 04:19:20;;;;;;;;;3.00;3.00;;;;;-3.77;78.74;100036.65;483308;111;373912;-56
2021/03/09 04:20:26;;;;;;;;;4.00;2.40;;;;;-3.77;78.74;100036.65;482159;111;381106;-54
2021/03/09 04:21:31;;;;;;;;;2.40;2.40;;;;;-3.67;78.02;100032.09;486019;112;373272;-54
2021/03/09 04:22:35;;;;;;;;;5.00;2.60;;;;;-3.70;77.45;100035.58;477091;112;373621;-53
2021/03/09 04:23:39;;;;;;;;;2.80;2.80;;;;;-3.70;77.45;100035.58;484661;112;372747;-56
2021/03/09 04:24:43;;;;;;;;;3.90;3.40;;;;;-3.64;77.41;100042.25;485746;112;374299;-54
2021/03/09 04:25:48;;;;;;;;;4.00;1.00;;;;;-3.70;76.83;100044.99;480395;112;373229;-57
2021/03/09 04:26:52;;;;;;;;;6.10;2.60;;;;;-3.70;76.83;100044.99;470180;114;373890;-55
2021/03/09 04:27:56;;;;;;;;;4.30;3.00;;;;;-3.67;76.79;100048.30;469307;115;383119;-54
2021/03/09 04:29:01;;;;;;;;;0.20;0.20;;;;;-3.75;76.70;100050.26;469062;115;379432;-54
2021/03/09 04:30:08;;;;;;;;;3.00;2.00;;;;;-3.80;77.23;100046.16;471850;114;373649;-56
2021/03/09 04:31:12;;;;;;;;;0.50;0.50;;;;;-3.80;77.23;100046.16;472564;115;372015;-54
2021/03/09 04:32:16;;;;;;;;;1.90;0.80;;;;;-3.74;76.94;100046.81;475203;113;372487;-55
2021/03/09 04:33:21;;;;;;;;;3.90;2.60;;;;;-3.73;76.92;100053.61;485751;112;374120;-54
2021/03/09 04:34:25;;;;;;;;;4.80;3.80;;;;;-3.75;76.98;100051.98;485418;112;379971;-54
2021/03/09 04:35:29;;;;;;;;;3.90;3.30;;;;;-3.75;77.02;100050.26;483556;112;374867;-55
2021/03/09 04:36:36;;;;;;;;;2.40;2.40;;;;;-3.75;77.24;100057.10;475930;111;373604;-54
2021/03/09 04:37:40;;;;;;;;;2.27;2.27;;;;;-3.68;76.72;100050.91;481007;112;378122;-55
2021/03/09 04:38:45;;;;;;;;;6.20;3.40;;;;;-3.71;77.15;100053.56;479654;111;374624;-54
2021/03/09 04:39:49;;;;;;;;;3.00;3.00;;;;;-3.79;77.18;100052.95;481328;112;381902;-51
2021/03/09 04:40:53;;;;;;;;;2.40;0.20;;;;;-3.70;76.79;100057.80;484569;112;372661;-53
2021/03/09 04:41:58;;;;;;;;;3.20;2.80;;;;;-3.78;77.26;100055.47;485776;112;374789;-57
2021/03/09 04:43:03;;;;;;;;;3.90;3.90;;;;;-3.71;77.00;100056.12;485640;112;374657;-53
2021/03/09 04:44:07;;;;;;;;;5.40;2.70;;;;;-3.71;77.00;100056.12;485882;112;374241;-54
2021/03/09 04:45:12;;;;;;;;;4.80;3.50;;;;;-3.68;77.00;100058.59;475098;112;374052;-53
2021/03/09 04:46:18;;;;;;;;;3.50;2.20;;;;;-3.64;76.94;100073.00;479859;112;373964;-53
2021/03/09 04:47:22;;;;;;;;;2.50;2.00;;;;;-3.64;76.94;100073.00;475393;111;372400;-54
2021/03/09 04:48:27;;;;;;;;;6.00;4.30;;;;;-3.63;76.88;100066.98;474236;113;374045;-56
2021/03/09 04:49:33;;;;;;;;;4.80;2.80;;;;;-3.69;77.16;100070.57;473241;114;374312;-55
2021/03/09 04:50:39;;;;;;;;;4.90;2.60;;;;;-3.65;76.97;100068.76;482775;112;380672;-57
2021/03/09 04:51:44;;;;;;;;;4.00;2.60;;;;;-3.69;77.18;100070.57;486362;112;374586;-56
2021/03/09 04:52:48;;;;;;;;;3.30;3.30;;;;;-3.64;76.78;100065.31;481271;112;382122;-54
2021/03/09 04:53:53;;;;;;;;;4.50;3.70;;;;;-3.62;76.91;100068.66;485059;112;374945;-53
2021/03/09 04:54:57;;;;;;;;;4.10;3.30;;;;;-3.62;76.91;100068.66;480315;112;374661;-55
2021/03/09 04:56:02;;;;;;;;;4.40;3.40;;;;;-3.63;77.18;100066.15;481080;112;381795;-56
2021/03/09 04:57:08;;;;;;;;;5.40;3.50;;;;;-3.60;76.96;100069.49;484374;112;373366;-55
2021/03/09 04:58:12;;;;;;;;;6.30;4.20;;;;;-3.56;77.06;100073.64;485004;112;382719;-55
2021/03/09 04:59:17;;;;;;;;;3.70;2.60;;;;;-3.53;77.28;100065.86;482107;112;374052;-54
2021/03/09 05:00:24;;;;;;;;;0.60;0.00;;;;;-3.53;77.28;100065.86;479454;112;372821;-55
2021/03/09 05:01:28;;;;;;;;;5.10;3.40;;;;;-3.52;77.11;100061.57;481196;112;373358;-55
2021/03/09 05:02:32;;;;;;;;;3.20;1.40;;;;;-3.51;76.96;100066.65;477426;111;380245;-55
2021/03/09 05:03:37;;;;;;;;;1.70;0.20;;;;;-3.51;76.96;100066.65;482764;111;373524;-55
2021/03/09 05:04:41;;;;;;;;;3.00;3.00;;;;;-3.48;77.15;100071.69;483173;112;373720;-54
2021/03/09 05:05:46;;;;;;;;;4.40;4.40;;;;;-3.50;77.06;100078.58;479945;112;374999;-56